Time;durP1;ratioP1;P1;durP2;ratioP2;P2;SDS_P1;SDS_P2;PMS_P1;PMS_P2;Temp;Humidity;BMP_temperature;BMP_pressure;BME280_temperature;BME280_humidity;BME280_pressure;Samples;Min_cycle;Max_cycle;Signal;HPM_P1;HPM_P2
2023/10/22 00:00:00;;;;;;;13.30;7.28;;;10.40;99.90;;;;;;5071230;28;20043;-70
2023/10/22 00:02:25;;;;;;;16.98;7.32;;;10.40;99.90;;;;;;5069240;28;20462;-70
2023/10/22 00:04:51;;;;;;;13.35;6.78;;;10.30;99.90;;;;;;5085786;28;20032;-70
2023/10/22 00:07:18;;;;;;;13.23;6.82;;;10.30;99.90;;;;;;5066118;28;20089;-70
2023/10/22 00:09:43;;;;;;;12.57;7.32;;;10.20;99.90;;;;;;5068489;28;20025;-70
2023/10/22 00:12:11;;;;;;;15.10;7.25;;;10.10;99.90;;;;;;5069035;28;20430;-70
2023/10/22 00:14:37;;;;;;;11.57;6.78;;;10.20;99.90;;;;;;5069568;28;20034;-70
2023/10/22 00:17:03;;;;;;;13.15;7.13;;;10.20;99.90;;;;;;5071389;28;20483;-70
2023/10/22 00:19:29;;;;;;;11.20;6.80;;;10.20;99.90;;;;;;5071094;28;20033;-70
2023/10/22 00:21:54;;;;;;;12.00;6.65;;;10.20;99.90;;;;;;5078446;28;20983;-70
2023/10/22 00:24:20;;;;;;;13.43;6.20;;;10.10;99.90;;;;;;5068648;28;20027;-70
2023/10/22 00:26:46;;;;;;;16.08;7.18;;;10.10;99.90;;;;;;5067924;28;20086;-69
2023/10/22 00:29:12;;;;;;;19.17;8.48;;;10.00;99.90;;;;;;5081507;28;20044;-70
2023/10/22 00:31:37;;;;;;;20.92;9.43;;;10.00;99.90;;;;;;5068382;28;20060;-70
2023/10/22 00:34:03;;;;;;;20.20;9.23;;;9.90;99.90;;;;;;5058994;28;20028;-70
2023/10/22 00:36:29;;;;;;;18.10;8.57;;;9.90;99.90;;;;;;5067116;28;20025;-70
2023/10/22 00:38:54;;;;;;;21.80;9.77;;;9.80;99.90;;;;;;5071711;28;20653;-70
2023/10/22 00:41:20;;;;;;;27.15;12.68;;;9.70;99.90;;;;;;5068553;28;20039;-70
2023/10/22 00:43:45;;;;;;;25.95;11.95;;;9.60;99.90;;;;;;5068177;28;20409;-70
2023/10/22 00:46:19;;;;;;;21.98;9.95;;;9.50;99.90;;;;;;5069011;28;20461;-71
2023/10/22 00:48:46;;;;;;;17.80;8.50;;;9.50;99.90;;;;;;5086341;28;20047;-70
2023/10/22 00:51:14;;;;;;;20.23;7.43;;;9.60;99.90;;;;;;5079462;28;20032;-70
2023/10/22 00:53:42;;;;;;;15.20;8.35;;;9.60;99.90;;;;;;5073193;28;20090;-70
2023/10/22 00:56:08;;;;;;;13.23;6.55;;;9.60;99.90;;;;;;5068751;28;20145;-70
2023/10/22 00:58:34;;;;;;;14.60;7.88;;;9.60;99.90;;;;;;5058067;28;20025;-69
2023/10/22 01:01:05;;;;;;;13.52;6.90;;;9.60;99.90;;;;;;5070373;28;20035;-70
2023/10/22 01:03:31;;;;;;;17.02;7.15;;;9.50;99.90;;;;;;5082385;28;20036;-70
2023/10/22 01:05:56;;;;;;;12.20;6.30;;;9.40;99.90;;;;;;5065495;28;20028;-70
2023/10/22 01:08:22;;;;;;;17.63;5.70;;;9.30;99.90;;;;;;5069978;28;20109;-70
2023/10/22 01:10:49;;;;;;;9.48;5.18;;;9.20;99.90;;;;;;5068798;28;20036;-70
2023/10/22 01:13:14;;;;;;;11.57;5.63;;;9.20;99.90;;;;;;5067953;28;20024;-70
2023/10/22 01:15:40;;;;;;;10.55;5.43;;;9.10;99.90;;;;;;5065107;28;20058;-70
2023/10/22 01:18:06;;;;;;;12.40;5.82;;;9.10;99.90;;;;;;5067907;28;20051;-70
2023/10/22 01:20:33;;;;;;;13.77;5.70;;;9.10;99.90;;;;;;5069641;28;20047;-70
2023/10/22 01:22:59;;;;;;;10.32;5.55;;;9.10;99.90;;;;;;5067419;28;20091;-70
2023/10/22 01:25:25;;;;;;;9.68;5.57;;;9.20;99.90;;;;;;5068270;28;20032;-69
2023/10/22 01:27:51;;;;;;;10.15;5.22;;;9.20;99.90;;;;;;5084213;28;20043;-70
2023/10/22 01:30:16;;;;;;;12.52;5.43;;;9.20;99.90;;;;;;5076161;28;20033;-70
2023/10/22 01:32:42;;;;;;;11.55;5.82;;;9.10;99.90;;;;;;5047952;28;20064;-70
2023/10/22 01:35:08;;;;;;;12.57;5.43;;;9.10;99.90;;;;;;5062468;28;20047;-69
2023/10/22 01:37:36;;;;;;;9.50;5.28;;;9.10;99.90;;;;;;5068023;28;20467;-69
2023/10/22 01:40:03;;;;;;;10.68;5.35;;;9.10;99.90;;;;;;5069999;28;20036;-70
2023/10/22 01:42:30;;;;;;;11.23;5.35;;;9.00;99.90;;;;;;5071586;28;20120;-70
2023/10/22 01:44:56;;;;;;;10.30;5.72;;;9.10;99.90;;;;;;5066027;28;20024;-70
2023/10/22 01:47:21;;;;;;;10.63;5.82;;;9.10;99.90;;;;;;5055616;28;20116;-70
2023/10/22 01:49:47;;;;;;;9.95;5.63;;;9.10;99.90;;;;;;5068856;28;20463;-70
2023/10/22 01:52:14;;;;;;;10.23;5.63;;;9.10;99.90;;;;;;5067715;28;20025;-70
2023/10/22 01:54:40;;;;;;;11.50;5.88;;;9.00;99.90;;;;;;5071177;28;20021;-68
2023/10/22 01:57:07;;;;;;;11.82;6.00;;;9.00;99.90;;;;;;5083379;28;20028;-71
2023/10/22 01:59:32;;;;;;;13.02;6.18;;;8.90;99.90;;;;;;5084588;28;20381;-70
2023/10/22 02:01:58;;;;;;;11.95;6.30;;;8.80;99.90;;;;;;5070924;28;20024;-69
2023/10/22 02:04:24;;;;;;;10.40;5.93;;;8.70;99.90;;;;;;5061006;28;20044;-70
2023/10/22 02:06:49;;;;;;;10.88;5.32;;;8.60;99.90;;;;;;5074854;28;20786;-70
2023/10/22 02:09:17;;;;;;;10.43;5.45;;;8.50;99.90;;;;;;5069851;28;20052;-70
2023/10/22 02:11:43;;;;;;;9.25;5.00;;;8.50;99.90;;;;;;5070779;28;20034;-70
2023/10/22 02:14:08;;;;;;;9.73;4.95;;;8.40;99.90;;;;;;5061586;28;20021;-70
2023/10/22 02:16:34;;;;;;;8.65;3.88;;;8.30;99.90;;;;;;5072873;28;20032;-68
2023/10/22 02:19:00;;;;;;;9.65;4.90;;;8.20;99.90;;;;;;5069479;28;20629;-69
2023/10/22 02:21:26;;;;;;;13.88;5.10;;;8.20;99.90;;;;;;5070891;28;20038;-71
2023/10/22 02:23:52;;;;;;;16.13;4.60;;;8.10;99.90;;;;;;5070488;28;20445;-70
2023/10/22 02:26:19;;;;;;;8.23;4.25;;;8.10;99.90;;;;;;5071325;28;20021;-70
2023/10/22 02:28:45;;;;;;;14.65;4.53;;;8.00;99.90;;;;;;5072997;28;20039;-70
2023/10/22 02:31:10;;;;;;;22.70;4.70;;;8.00;99.90;;;;;;5073445;28;20484;-70
2023/10/22 02:33:38;;;;;;;10.75;4.20;;;7.90;99.90;;;;;;5073177;28;20040;-70
2023/10/22 02:36:04;;;;;;;9.18;3.97;;;7.90;99.90;;;;;;5091065;28;20034;-71
2023/10/22 02:38:29;;;;;;;7.32;4.20;;;7.80;99.90;;;;;;5082012;28;20552;-70
2023/10/22 02:40:55;;;;;;;11.90;4.65;;;7.90;99.90;;;;;;5072564;28;20028;-71
2023/10/22 02:43:20;;;;;;;8.10;4.00;;;7.90;99.90;;;;;;5072698;28;20025;-70
2023/10/22 02:45:53;;;;;;;7.47;4.50;;;7.90;99.90;;;;;;5072123;28;20107;-71
2023/10/22 02:48:20;;;;;;;8.77;4.47;;;8.00;99.90;;;;;;5091310;28;20032;-71
2023/10/22 02:50:46;;;;;;;9.45;4.30;;;8.10;99.90;;;;;;5086363;28;20132;-69
2023/10/22 02:53:13;;;;;;;8.23;4.30;;;8.10;99.90;;;;;;5071370;28;20036;-71
2023/10/22 02:55:39;;;;;;;8.70;4.55;;;8.20;99.90;;;;;;5070896;28;20043;-70
2023/10/22 02:58:05;;;;;;;10.05;4.90;;;8.10;99.90;;;;;;5070254;28;20038;-71
2023/10/22 03:00:32;;;;;;;10.50;4.57;;;8.10;99.90;;;;;;5067611;28;20032;-70
2023/10/22 03:02:58;;;;;;;9.30;4.60;;;8.10;99.90;;;;;;5070700;28;20407;-71
2023/10/22 03:05:24;;;;;;;7.43;4.15;;;8.10;99.90;;;;;;5091087;28;20111;-71
2023/10/22 03:07:50;;;;;;;8.43;4.20;;;7.90;99.90;;;;;;5076827;28;20084;-70
2023/10/22 03:10:16;;;;;;;10.32;4.13;;;7.90;99.90;;;;;;5075288;28;20060;-70
2023/10/22 03:12:42;;;;;;;7.80;3.92;;;7.90;99.90;;;;;;5083419;28;20063;-68
2023/10/22 03:15:08;;;;;;;8.27;4.40;;;7.90;99.90;;;;;;5086043;28;20438;-70
2023/10/22 03:17:33;;;;;;;7.53;4.25;;;8.00;99.90;;;;;;5072899;28;20024;-71
2023/10/22 03:20:00;;;;;;;6.78;3.95;;;8.00;99.90;;;;;;5057502;28;20111;-69
2023/10/22 03:22:25;;;;;;;7.82;4.60;;;7.90;99.90;;;;;;5054680;28;20028;-70
2023/10/22 03:24:51;;;;;;;7.50;4.28;;;7.80;99.90;;;;;;5083303;28;20036;-69
2023/10/22 03:27:17;;;;;;;8.77;4.28;;;7.80;99.90;;;;;;5090564;28;20025;-71
2023/10/22 03:29:44;;;;;;;9.60;4.45;;;7.70;99.90;;;;;;5086487;28;20028;-67
2023/10/22 03:32:10;;;;;;;8.55;3.83;;;7.70;99.90;;;;;;5070865;28;20041;-70
2023/10/22 03:34:36;;;;;;;6.20;3.63;;;7.60;99.90;;;;;;5078246;28;20075;-69
2023/10/22 03:37:04;;;;;;;5.03;3.17;;;7.60;99.90;;;;;;5069012;28;20040;-70
2023/10/22 03:39:33;;;;;;;6.20;3.40;;;7.50;99.90;;;;;;5086447;28;20056;-70
2023/10/22 03:41:59;;;;;;;6.57;3.17;;;7.50;99.90;;;;;;5081985;28;20116;-70
2023/10/22 03:44:24;;;;;;;5.53;3.28;;;7.50;99.90;;;;;;5050177;28;20374;-70
2023/10/22 03:46:50;;;;;;;5.05;2.75;;;7.40;99.90;;;;;;5075633;28;20063;-68
2023/10/22 03:49:16;;;;;;;4.90;3.10;;;7.30;99.90;;;;;;5067897;28;20074;-71
2023/10/22 03:51:41;;;;;;;5.00;3.13;;;7.30;99.90;;;;;;5072390;28;20040;-70
2023/10/22 03:54:07;;;;;;;7.40;3.38;;;7.30;99.90;;;;;;5068760;28;20457;-68
2023/10/22 03:56:34;;;;;;;5.40;3.50;;;7.30;99.90;;;;;;5068942;28;20040;-70
2023/10/22 03:59:00;;;;;;;8.65;4.78;;;7.30;99.90;;;;;;5069405;28;20036;-71
2023/10/22 04:01:26;;;;;;;8.48;3.97;;;7.30;99.90;;;;;;5082215;28;20066;-71
2023/10/22 04:03:51;;;;;;;9.18;4.30;;;7.30;99.90;;;;;;5068641;28;20028;-69
2023/10/22 04:06:17;;;;;;;8.27;4.22;;;7.20;99.90;;;;;;5088096;28;20032;-71
2023/10/22 04:08:43;;;;;;;6.85;4.25;;;7.30;99.90;;;;;;5074977;28;20053;-70
2023/10/22 04:11:08;;;;;;;9.23;3.75;;;7.20;99.90;;;;;;5067829;28;20112;-70
2023/10/22 04:13:34;;;;;;;6.13;3.65;;;7.10;99.90;;;;;;5068554;28;20496;-71
2023/10/22 04:15:59;;;;;;;6.97;3.95;;;7.10;99.90;;;;;;5068533;28;20024;-71
2023/10/22 04:18:25;;;;;;;7.00;4.22;;;7.10;99.90;;;;;;5078495;28;20479;-71
2023/10/22 04:20:51;;;;;;;7.90;4.40;;;7.10;99.90;;;;;;5085967;28;20064;-71
2023/10/22 04:23:17;;;;;;;10.63;4.05;;;7.10;99.90;;;;;;5067658;28;20044;-71
2023/10/22 04:25:44;;;;;;;7.72;3.88;;;7.10;99.90;;;;;;5077824;28;20476;-70
2023/10/22 04:28:11;;;;;;;7.80;3.78;;;7.20;99.90;;;;;;5086339;28;20032;-71
2023/10/22 04:30:41;;;;;;;6.80;3.85;;;7.20;99.90;;;;;;5079231;28;20048;-70
2023/10/22 04:33:07;;;;;;;7.88;4.13;;;7.20;99.90;;;;;;5073758;28;20706;-71
2023/10/22 04:35:34;;;;;;;27.30;15.10;;;7.20;99.90;;;;;;5072079;28;20037;-70
2023/10/22 04:38:00;;;;;;;18.23;11.13;;;7.20;99.90;;;;;;5082804;28;20036;-71
2023/10/22 04:40:30;;;;;;;18.83;9.80;;;7.20;99.90;;;;;;5089356;28;20459;-70
2023/10/22 04:42:59;;;;;;;15.82;9.48;;;7.20;99.90;;;;;;5048277;28;20037;-71
2023/10/22 04:45:25;;;;;;;11.70;5.45;;;7.20;99.90;;;;;;5076752;28;20445;-71
2023/10/22 04:47:50;;;;;;;12.07;4.18;;;7.10;99.90;;;;;;5071399;28;20123;-69
2023/10/22 04:50:16;;;;;;;6.60;3.25;;;7.00;99.90;;;;;;5057722;28;20230;-71
2023/10/22 04:52:41;;;;;;;4.80;3.17;;;6.70;99.90;;;;;;5068970;28;20025;-71
2023/10/22 04:55:08;;;;;;;4.03;2.83;;;6.60;99.90;;;;;;5068318;28;20087;-70
2023/10/22 04:57:34;;;;;;;5.95;3.15;;;6.50;99.90;;;;;;5075483;28;20037;-70
2023/10/22 05:00:00;;;;;;;5.18;3.03;;;6.50;99.90;;;;;;5086247;28;20051;-70
2023/10/22 05:02:26;;;;;;;6.50;3.10;;;6.50;99.90;;;;;;5063857;28;20385;-70
2023/10/22 05:04:52;;;;;;;7.20;3.40;;;6.60;99.90;;;;;;5068010;28;20025;-70
2023/10/22 05:07:18;;;;;;;5.63;2.88;;;6.50;99.90;;;;;;5067131;28;20050;-71
2023/10/22 05:09:44;;;;;;;4.10;2.80;;;6.60;99.90;;;;;;5068634;28;20029;-71
2023/10/22 05:12:10;;;;;;;5.13;2.85;;;6.60;99.90;;;;;;5064646;28;20021;-70
2023/10/22 05:14:36;;;;;;;11.93;3.75;;;6.60;99.90;;;;;;5087288;28;20064;-70
2023/10/22 05:17:01;;;;;;;6.88;3.40;;;6.70;99.90;;;;;;5066856;28;20032;-71
2023/10/22 05:19:27;;;;;;;6.85;3.55;;;6.70;99.90;;;;;;5063990;28;20028;-71
2023/10/22 05:21:53;;;;;;;5.55;3.35;;;6.70;99.90;;;;;;5072614;28;20046;-69
2023/10/22 05:24:18;;;;;;;6.40;3.65;;;6.70;99.90;;;;;;5070070;28;20044;-71
2023/10/22 05:26:44;;;;;;;5.85;3.67;;;6.70;99.90;;;;;;5082244;28;20036;-71
2023/10/22 05:29:10;;;;;;;4.45;3.03;;;6.70;99.90;;;;;;5082526;28;20032;-70
2023/10/22 05:31:35;;;;;;;15.77;6.75;;;6.70;99.90;;;;;;5070466;28;20032;-71
2023/10/22 05:34:01;;;;;;;18.00;9.00;;;6.60;99.90;;;;;;5069101;28;20033;-71
2023/10/22 05:36:27;;;;;;;20.48;9.80;;;6.70;99.90;;;;;;5080691;28;20110;-71
2023/10/22 05:38:53;;;;;;;19.85;9.15;;;6.70;99.90;;;;;;5074104;28;20039;-68
2023/10/22 05:41:25;;;;;;;14.50;7.28;;;6.70;99.90;;;;;;5053412;28;20025;-71
2023/10/22 05:44:02;;;;;;;15.48;7.85;;;6.60;99.90;;;;;;5079173;28;20059;-68
2023/10/22 05:46:37;;;;;;;7.65;3.97;;;6.50;99.90;;;;;;5074367;28;20038;-69
2023/10/22 05:49:04;;;;;;;9.00;4.43;;;6.40;99.90;;;;;;5080841;28;20036;-71
2023/10/22 05:51:30;;;;;;;12.55;5.78;;;6.40;99.90;;;;;;5056091;28;20503;-71
2023/10/22 05:53:56;;;;;;;13.68;6.72;;;6.30;99.90;;;;;;5046331;28;20885;-70
2023/10/22 05:56:23;;;;;;;12.05;5.65;;;6.40;99.90;;;;;;5053961;28;20103;-71
2023/10/22 05:58:49;;;;;;;10.25;5.07;;;6.50;99.90;;;;;;5064570;28;20032;-71
2023/10/22 06:01:14;;;;;;;8.18;4.18;;;6.70;99.90;;;;;;5061268;28;20392;-70
2023/10/22 06:03:40;;;;;;;8.32;4.18;;;6.80;99.90;;;;;;5069687;28;20036;-69
2023/10/22 06:06:06;;;;;;;8.57;4.13;;;6.90;99.90;;;;;;5071270;28;20035;-70
2023/10/22 06:08:31;;;;;;;9.20;4.13;;;7.00;99.90;;;;;;5063244;28;20132;-70
2023/10/22 06:10:57;;;;;;;7.82;3.90;;;6.90;99.90;;;;;;5062937;28;20040;-71
2023/10/22 06:13:23;;;;;;;9.23;4.20;;;6.90;99.90;;;;;;5063323;28;20461;-70
2023/10/22 06:15:48;;;;;;;6.45;3.90;;;6.80;99.90;;;;;;5068782;28;20032;-72
2023/10/22 06:18:14;;;;;;;12.05;6.78;;;6.80;99.90;;;;;;5064825;28;20021;-71
2023/10/22 06:20:40;;;;;;;10.52;5.40;;;6.80;99.90;;;;;;5051771;28;20028;-69
2023/10/22 06:23:06;;;;;;;7.40;5.00;;;6.80;99.90;;;;;;5050773;28;20029;-70
2023/10/22 06:25:33;;;;;;;7.20;4.50;;;6.80;99.90;;;;;;5052224;28;20060;-71
2023/10/22 06:27:59;;;;;;;9.48;5.28;;;6.70;99.90;;;;;;5050451;28;20033;-70
2023/10/22 06:30:26;;;;;;;11.45;6.03;;;6.70;99.90;;;;;;5051487;28;20029;-71
2023/10/22 06:32:52;;;;;;;13.20;7.05;;;6.70;99.90;;;;;;5057141;28;20037;-70
2023/10/22 06:35:22;;;;;;;16.20;7.75;;;6.70;99.90;;;;;;5077788;28;20499;-70
2023/10/22 06:37:52;;;;;;;12.98;6.70;;;6.80;99.90;;;;;;5071921;28;20072;-70
2023/10/22 06:40:21;;;;;;;13.88;6.85;;;6.90;99.90;;;;;;5064043;28;20036;-70
2023/10/22 06:42:48;;;;;;;12.18;7.10;;;7.00;99.90;;;;;;5069621;28;20052;-70
2023/10/22 06:45:14;;;;;;;16.42;8.57;;;7.10;99.90;;;;;;5065572;28;20751;-70
2023/10/22 06:47:40;;;;;;;13.85;7.38;;;7.30;99.90;;;;;;5067330;28;20055;-69
2023/10/22 06:50:08;;;;;;;13.52;8.07;;;7.40;99.90;;;;;;5062870;28;20046;-67
2023/10/22 06:52:35;;;;;;;12.43;6.13;;;7.50;99.90;;;;;;5063836;28;20470;-70
2023/10/22 06:55:01;;;;;;;10.18;5.70;;;7.50;99.90;;;;;;5063959;28;20064;-71
2023/10/22 06:57:26;;;;;;;11.30;5.45;;;7.50;99.90;;;;;;5061943;28;20066;-71
2023/10/22 06:59:56;;;;;;;7.50;4.30;;;7.60;99.90;;;;;;5059700;28;20048;-69
2023/10/22 07:02:25;;;;;;;8.18;4.32;;;7.80;99.90;;;;;;5069004;28;20099;-71
2023/10/22 07:04:55;;;;;;;7.22;3.90;;;8.00;99.90;;;;;;5071002;28;20109;-70
2023/10/22 07:07:21;;;;;;;8.50;3.55;;;8.20;99.90;;;;;;5064643;28;20033;-70
2023/10/22 07:09:47;;;;;;;7.10;3.05;;;8.50;99.90;;;;;;5066206;28;20036;-70
2023/10/22 07:12:13;;;;;;;7.10;3.10;;;8.80;99.90;;;;;;5065379;28;20110;-70
2023/10/22 07:14:39;;;;;;;7.10;2.40;;;9.00;99.90;;;;;;5066697;28;20055;-71
2023/10/22 07:17:05;;;;;;;4.38;2.40;;;9.10;99.90;;;;;;5068737;28;20020;-73
2023/10/22 07:19:31;;;;;;;9.00;2.90;;;9.10;99.90;;;;;;5071123;28;20508;-71
2023/10/22 07:21:56;;;;;;;5.65;1.83;;;9.20;99.90;;;;;;5057351;28;20040;-71
2023/10/22 07:24:22;;;;;;;7.82;2.38;;;9.30;99.90;;;;;;5067078;28;20384;-72
2023/10/22 07:26:48;;;;;;;6.28;2.05;;;9.40;99.90;;;;;;5067632;28;20025;-72
2023/10/22 07:29:14;;;;;;;4.63;2.08;;;9.60;99.90;;;;;;5058749;28;20663;-72
2023/10/22 07:31:40;;;;;;;4.55;1.70;;;9.70;99.90;;;;;;5069885;28;20529;-72
2023/10/22 07:34:06;;;;;;;6.50;2.90;;;9.80;99.90;;;;;;5063776;28;20370;-70
2023/10/22 07:36:32;;;;;;;3.17;1.77;;;10.00;99.90;;;;;;5063155;28;20107;-71
2023/10/22 07:38:57;;;;;;;5.53;2.00;;;10.10;99.90;;;;;;5062219;28;20123;-70
2023/10/22 07:41:24;;;;;;;3.10;1.60;;;10.30;99.90;;;;;;5062599;28;20052;-70
2023/10/22 07:43:49;;;;;;;5.10;1.95;;;10.40;99.90;;;;;;5069149;28;20085;-70
2023/10/22 07:46:16;;;;;;;6.30;1.85;;;10.50;99.90;;;;;;5065260;28;20028;-70
2023/10/22 07:48:42;;;;;;;4.55;1.77;;;10.60;99.90;;;;;;5048816;28;20055;-71
2023/10/22 07:51:18;;;;;;;6.95;1.70;;;10.60;99.90;;;;;;5050466;28;20029;-71
2023/10/22 07:53:48;;;;;;;4.78;1.65;;;10.70;99.90;;;;;;5063384;28;20035;-71
2023/10/22 07:56:18;;;;;;;5.13;1.50;;;10.90;99.90;;;;;;5062264;28;20057;-70
2023/10/22 07:58:43;;;;;;;3.30;1.52;;;11.10;99.90;;;;;;5049411;28;20546;-70
2023/10/22 08:01:09;;;;;;;5.78;1.70;;;11.30;99.90;;;;;;5049441;28;20045;-73
2023/10/22 08:03:35;;;;;;;3.58;1.75;;;11.30;99.90;;;;;;5050240;28;20612;-71
2023/10/22 08:06:03;;;;;;;4.72;1.50;;;11.40;99.90;;;;;;5050108;28;20036;-70
2023/10/22 08:08:29;;;;;;;5.50;1.70;;;11.50;99.90;;;;;;5058700;28;20048;-71
2023/10/22 08:10:59;;;;;;;3.38;1.27;;;11.60;99.90;;;;;;5069462;28;20032;-70
2023/10/22 08:13:25;;;;;;;6.35;1.60;;;11.70;99.90;;;;;;5058089;28;20172;-71
2023/10/22 08:15:52;;;;;;;5.40;1.30;;;11.80;99.90;;;;;;5050893;28;20422;-70
2023/10/22 08:18:18;;;;;;;3.72;1.40;;;11.80;99.90;;;;;;5054865;28;20041;-71
2023/10/22 08:20:44;;;;;;;3.97;1.25;;;11.90;99.90;;;;;;5060314;28;20041;-73
2023/10/22 08:23:10;;;;;;;6.38;1.30;;;12.00;99.90;;;;;;5067528;28;20344;-71
2023/10/22 08:25:38;;;;;;;10.68;1.30;;;12.20;99.90;;;;;;5069514;28;20021;-71
2023/10/22 08:28:04;;;;;;;10.30;1.42;;;12.30;99.90;;;;;;5066087;28;20424;-71
2023/10/22 08:30:30;;;;;;;4.60;0.93;;;12.40;99.90;;;;;;5051628;28;20025;-72
2023/10/22 08:32:55;;;;;;;2.75;1.10;;;12.50;99.90;;;;;;5067594;28;20063;-72
2023/10/22 08:35:21;;;;;;;4.70;0.90;;;12.60;99.90;;;;;;5056110;28;20029;-71
2023/10/22 08:37:47;;;;;;;4.88;1.08;;;12.60;99.90;;;;;;5057165;28;20484;-70
2023/10/22 08:40:12;;;;;;;2.17;0.90;;;12.70;99.90;;;;;;5049206;28;20031;-73
2023/10/22 08:42:38;;;;;;;10.35;1.23;;;12.80;99.90;;;;;;5049185;28;20013;-72
2023/10/22 08:45:06;;;;;;;4.88;1.00;;;12.80;99.90;;;;;;5048497;28;20025;-71
2023/10/22 08:47:34;;;;;;;6.15;0.95;;;12.80;99.90;;;;;;5048877;28;20355;-71
2023/10/22 08:50:01;;;;;;;3.95;0.70;;;12.90;99.90;;;;;;5048486;28;20039;-70
2023/10/22 08:52:27;;;;;;;5.13;0.80;;;13.10;99.90;;;;;;5049037;28;20032;-73
2023/10/22 08:54:53;;;;;;;3.83;1.00;;;13.20;99.90;;;;;;5049353;28;20056;-70
2023/10/22 08:57:21;;;;;;;9.85;1.00;;;13.30;99.90;;;;;;5048024;28;20620;-70
2023/10/22 08:59:48;;;;;;;4.47;0.90;;;13.40;99.90;;;;;;5048629;28;20055;-72
2023/10/22 09:02:21;;;;;;;4.75;0.82;;;13.50;99.90;;;;;;5048144;28;20025;-72
2023/10/22 09:04:47;;;;;;;2.85;0.70;;;13.50;99.90;;;;;;5049427;28;20039;-71
2023/10/22 09:07:13;;;;;;;3.72;0.75;;;13.60;99.90;;;;;;5047823;28;20403;-73
2023/10/22 09:09:40;;;;;;;6.95;0.70;;;13.60;99.90;;;;;;5087313;28;21076;-71
2023/10/22 09:12:14;;;;;;;2.22;0.60;;;13.60;99.90;;;;;;5087737;28;20071;-73
2023/10/22 09:14:42;;;;;;;3.65;0.80;;;13.60;99.90;;;;;;5078905;28;20032;-72
2023/10/22 09:17:18;;;;;;;5.30;0.95;;;13.60;99.90;;;;;;5082632;28;20473;-71
2023/10/22 09:19:47;;;;;;;7.57;0.70;;;13.60;99.90;;;;;;5084500;28;20025;-73
2023/10/22 09:22:26;;;;;;;4.82;0.88;;;13.70;99.90;;;;;;5068572;28;20024;-73
2023/10/22 09:24:55;;;;;;;2.58;0.77;;;13.70;99.90;;;;;;5072967;28;20133;-71
2023/10/22 09:27:26;;;;;;;7.47;0.93;;;13.80;99.90;;;;;;5086832;28;20089;-71
2023/10/22 09:29:53;;;;;;;6.05;0.73;;;13.90;99.90;;;;;;5082117;28;20047;-72
2023/10/22 09:32:19;;;;;;;7.38;0.75;;;13.70;99.90;;;;;;5069647;28;20033;-72
2023/10/22 09:34:45;;;;;;;7.30;0.85;;;13.70;99.90;;;;;;5074627;28;20028;-73
2023/10/22 09:37:11;;;;;;;5.05;0.63;;;13.80;99.90;;;;;;5078284;28;20043;-72
2023/10/22 09:39:39;;;;;;;6.63;0.60;;;14.00;99.90;;;;;;5077358;28;20071;-71
2023/10/22 09:42:06;;;;;;;6.53;0.88;;;14.10;99.90;;;;;;5084224;28;20032;-70
2023/10/22 09:44:33;;;;;;;8.60;0.90;;;14.20;99.90;;;;;;5079217;28;20154;-72
2023/10/22 09:47:03;;;;;;;3.88;0.65;;;14.40;99.90;;;;;;5084598;28;20111;-72
2023/10/22 09:49:33;;;;;;;7.57;1.00;;;14.60;99.90;;;;;;5071555;28;20043;-72
2023/10/22 09:52:00;;;;;;;5.13;0.80;;;14.50;99.90;;;;;;5085789;28;20173;-72
2023/10/22 09:54:37;;;;;;;3.28;0.52;;;14.50;99.90;;;;;;5072618;28;20098;-72
2023/10/22 09:57:14;;;;;;;3.88;0.70;;;14.70;99.90;;;;;;5082900;28;20403;-71
2023/10/22 09:59:44;;;;;;;6.95;0.88;;;14.70;99.90;;;;;;5073265;28;20040;-72
2023/10/22 10:02:15;;;;;;;4.85;1.38;;;14.60;99.90;;;;;;5080981;28;20030;-72
2023/10/22 10:04:43;;;;;;;5.38;0.90;;;14.50;99.90;;;;;;5079411;28;20040;-72
2023/10/22 10:07:08;;;;;;;5.43;0.82;;;14.60;99.90;;;;;;5087313;28;20020;-71
2023/10/22 10:09:35;;;;;;;7.25;1.05;;;14.70;99.90;;;;;;5084553;28;20085;-73
2023/10/22 10:12:08;;;;;;;7.10;0.90;;;14.80;99.90;;;;;;5077452;28;20060;-70
2023/10/22 10:14:44;;;;;;;5.40;0.63;;;14.80;99.90;;;;;;5073805;28;20029;-73
2023/10/22 10:17:10;;;;;;;8.32;0.70;;;14.90;99.90;;;;;;5075222;28;20024;-71
2023/10/22 10:19:36;;;;;;;4.70;0.95;;;14.90;99.90;;;;;;5074211;28;20084;-71
2023/10/22 10:22:02;;;;;;;2.65;0.68;;;14.90;99.90;;;;;;5087028;28;20032;-70
2023/10/22 10:24:29;;;;;;;6.85;1.70;;;15.00;99.90;;;;;;5081831;28;20039;-70
2023/10/22 10:26:56;;;;;;;3.70;1.00;;;15.20;99.90;;;;;;5088708;28;20056;-71
2023/10/22 10:29:32;;;;;;;9.27;0.95;;;15.10;99.90;;;;;;5072461;28;20105;-71
2023/10/22 10:32:13;;;;;;;3.05;0.70;;;15.10;99.90;;;;;;5081366;28;20101;-71
2023/10/22 10:34:40;;;;;;;6.25;0.70;;;15.30;99.90;;;;;;5053120;28;20158;-71
2023/10/22 10:37:19;;;;;;;4.55;0.82;;;15.40;99.90;;;;;;5076878;28;20136;-70
2023/10/22 10:39:49;;;;;;;8.75;0.98;;;15.50;99.90;;;;;;5056805;28;20028;-71
2023/10/22 10:42:36;;;;;;;7.75;0.77;;;15.50;99.90;;;;;;5073298;28;20029;-72
2023/10/22 10:45:07;;;;;;;8.27;1.00;;;15.60;99.90;;;;;;5060997;28;20532;-71
2023/10/22 10:47:39;;;;;;;7.00;0.90;;;15.50;99.90;;;;;;5089322;28;20384;-72
2023/10/22 10:50:12;;;;;;;5.60;0.70;;;15.60;99.90;;;;;;5078782;28;20053;-70
2023/10/22 10:52:38;;;;;;;4.97;0.70;;;15.60;99.90;;;;;;5084291;28;20050;-70
2023/10/22 10:55:15;;;;;;;3.78;0.90;;;15.80;99.90;;;;;;5074191;28;20016;-72
2023/10/22 10:57:45;;;;;;;5.35;0.82;;;15.80;99.90;;;;;;5085940;28;20028;-71
2023/10/22 11:00:30;;;;;;;4.90;1.00;;;15.80;99.90;;;;;;5073575;28;20048;-69
2023/10/22 11:02:58;;;;;;;13.73;1.83;;;15.90;99.90;;;;;;5085267;28;20028;-75
2023/10/22 11:05:37;;;;;;;5.78;0.68;;;16.00;99.90;;;;;;5090287;28;20107;-77
2023/10/22 11:08:23;;;;;;;2.00;0.50;;;16.10;99.90;;;;;;5090635;28;20135;-76
2023/10/22 11:10:49;;;;;;;3.53;0.82;;;16.10;99.90;;;;;;5089064;28;20467;-75
2023/10/22 11:13:24;;;;;;;5.50;0.70;;;16.10;99.90;;;;;;5084504;28;20050;-75
2023/10/22 11:15:53;;;;;;;4.80;0.60;;;16.30;99.90;;;;;;5091111;28;20028;-75
2023/10/22 11:18:19;;;;;;;4.65;0.60;;;16.70;99.90;;;;;;5087984;28;20032;-77
2023/10/22 11:20:56;;;;;;;5.97;0.60;;;16.50;99.90;;;;;;5075313;28;20027;-77
2023/10/22 11:23:23;;;;;;;4.20;0.70;;;16.80;99.90;;;;;;5071532;28;20061;-74
2023/10/22 11:25:49;;;;;;;8.07;0.85;;;16.80;99.90;;;;;;5074694;28;20020;-75
2023/10/22 11:28:15;;;;;;;4.10;0.55;;;16.60;99.90;;;;;;5085030;28;20107;-76
2023/10/22 11:30:41;;;;;;;3.35;0.70;;;16.30;99.90;;;;;;5087109;28;20111;-75
2023/10/22 11:33:08;;;;;;;5.82;0.70;;;16.20;99.90;;;;;;5083683;28;20520;-76
2023/10/22 11:35:36;;;;;;;5.88;0.50;;;16.20;99.90;;;;;;5089308;28;20029;-75
2023/10/22 11:38:02;;;;;;;5.00;1.15;;;16.10;99.90;;;;;;5085359;28;20107;-77
2023/10/22 11:40:29;;;;;;;2.28;0.47;;;16.20;99.90;;;;;;5076212;28;20067;-76
2023/10/22 11:43:05;;;;;;;5.45;0.80;;;16.30;99.90;;;;;;5070661;28;20131;-76
2023/10/22 11:45:35;;;;;;;2.55;0.32;;;16.40;99.90;;;;;;5073019;28;20048;-80
2023/10/22 11:48:17;;;;;;;8.23;0.60;;;16.20;99.90;;;;;;5074476;28;20103;-76
2023/10/22 11:50:50;;;;;;;2.20;0.52;;;16.10;99.90;;;;;;5075153;28;20166;-80
2023/10/22 11:53:17;;;;;;;3.80;0.40;;;15.90;99.90;;;;;;5073894;28;20036;-79
2023/10/22 11:55:43;;;;;;;2.83;0.38;;;16.00;99.90;;;;;;5074496;28;20025;-80
2023/10/22 11:58:24;;;;;;;4.47;0.60;;;16.00;99.90;;;;;;5085562;28;20032;-77
2023/10/22 12:00:50;;;;;;;2.63;0.70;;;16.10;99.90;;;;;;5084933;28;20096;-78
2023/10/22 12:03:16;;;;;;;10.55;1.00;;;16.20;99.90;;;;;;5080778;28;20037;-77
2023/10/22 12:05:42;;;;;;;4.05;1.02;;;16.30;99.90;;;;;;5070064;28;20037;-78
2023/10/22 12:08:08;;;;;;;10.48;0.60;;;16.30;99.90;;;;;;5077602;28;20493;-76
2023/10/22 12:10:34;;;;;;;6.35;0.68;;;16.30;99.90;;;;;;5089612;28;20052;-80
2023/10/22 12:12:59;;;;;;;2.42;0.60;;;16.30;99.90;;;;;;5081683;28;20037;-79
2023/10/22 12:15:25;;;;;;;2.97;0.65;;;16.30;99.90;;;;;;5070881;28;20036;-77
2023/10/22 12:17:52;;;;;;;3.55;0.50;;;16.50;99.90;;;;;;5070974;28;20037;-76
2023/10/22 12:20:18;;;;;;;4.15;0.65;;;16.80;99.90;;;;;;5068038;28;20783;-78
2023/10/22 12:22:43;;;;;;;5.53;0.50;;;16.90;99.90;;;;;;5088750;28;20031;-81
2023/10/22 12:25:09;;;;;;;7.82;0.60;;;16.70;99.90;;;;;;5088096;28;20032;-75
2023/10/22 12:27:35;;;;;;;1.25;0.40;;;16.70;99.90;;;;;;5077694;28;20028;-80
2023/10/22 12:30:03;;;;;;;6.45;0.65;;;16.70;99.90;;;;;;5080861;28;20075;-79
2023/10/22 12:32:28;;;;;;;3.53;0.55;;;16.60;99.90;;;;;;5067869;28;20031;-80
2023/10/22 12:34:54;;;;;;;3.85;0.70;;;16.80;99.90;;;;;;5068900;28;20028;-78
2023/10/22 12:37:20;;;;;;;4.95;0.70;;;16.60;99.90;;;;;;5093414;27;20056;-81
2023/10/22 12:39:45;;;;;;;4.28;0.57;;;16.30;99.90;;;;;;5076506;28;20054;-79
2023/10/22 12:42:12;;;;;;;4.30;0.90;;;16.10;99.90;;;;;;5077962;28;20040;-76
2023/10/22 12:44:43;;;;;;;4.95;0.50;;;16.00;99.90;;;;;;5084711;28;20022;-81
2023/10/22 12:47:12;;;;;;;1.35;0.30;;;16.60;99.90;;;;;;5072440;28;20411;-81